sensor_id;sensor_type;location;lat;lon;timestamp;P1;durP1;ratioP1;P2;durP2;ratioP2
35312;SDS011;21425;50.454;30.466;2024-03-02T00:02:14;46.90;;;20.02;;
35312;SDS011;21425;50.454;30.466;2024-03-02T00:04:40;54.13;;;19.83;;
35312;SDS011;21425;50.454;30.466;2024-03-02T00:07:06;48.03;;;19.50;;
35312;SDS011;21425;50.454;30.466;2024-03-02T00:09:32;45.22;;;19.65;;
35312;SDS011;21425;50.454;30.466;2024-03-02T00:11:59;46.05;;;19.90;;
35312;SDS011;21425;50.454;30.466;2024-03-02T00:14:25;49.95;;;21.30;;
35312;SDS011;21425;50.454;30.466;2024-03-02T00:16:55;43.53;;;19.95;;
35312;SDS011;21425;50.454;30.466;2024-03-02T00:19:21;50.42;;;20.13;;
35312;SDS011;21425;50.454;30.466;2024-03-02T00:21:47;58.25;;;21.88;;
35312;SDS011;21425;50.454;30.466;2024-03-02T00:24:31;48.00;;;20.08;;
35312;SDS011;21425;50.454;30.466;2024-03-02T00:26:59;50.13;;;20.35;;
35312;SDS011;21425;50.454;30.466;2024-03-02T00:29:25;40.45;;;18.73;;
35312;SDS011;21425;50.454;30.466;2024-03-02T00:31:51;46.45;;;20.75;;
35312;SDS011;21425;50.454;30.466;2024-03-02T00:34:18;49.28;;;21.15;;
35312;SDS011;21425;50.454;30.466;2024-03-02T00:36:44;51.80;;;20.23;;
35312;SDS011;21425;50.454;30.466;2024-03-02T00:39:11;41.20;;;19.42;;
35312;SDS011;21425;50.454;30.466;2024-03-02T00:41:40;53.75;;;19.45;;
35312;SDS011;21425;50.454;30.466;2024-03-02T00:44:09;48.47;;;19.85;;
35312;SDS011;21425;50.454;30.466;2024-03-02T00:46:38;42.35;;;19.95;;
35312;SDS011;21425;50.454;30.466;2024-03-02T00:51:36;53.75;;;20.83;;
35312;SDS011;21425;50.454;30.466;2024-03-02T00:54:05;52.38;;;19.98;;
35312;SDS011;21425;50.454;30.466;2024-03-02T00:56:33;46.80;;;21.73;;
35312;SDS011;21425;50.454;30.466;2024-03-02T00:58:59;52.65;;;20.48;;
35312;SDS011;21425;50.454;30.466;2024-03-02T01:01:25;43.05;;;19.77;;
35312;SDS011;21425;50.454;30.466;2024-03-02T01:03:52;52.22;;;20.05;;
35312;SDS011;21425;50.454;30.466;2024-03-02T01:06:18;44.28;;;20.13;;
35312;SDS011;21425;50.454;30.466;2024-03-02T01:08:44;46.92;;;19.63;;
35312;SDS011;21425;50.454;30.466;2024-03-02T01:11:10;52.25;;;19.98;;
35312;SDS011;21425;50.454;30.466;2024-03-02T01:13:36;50.40;;;21.23;;
35312;SDS011;21425;50.454;30.466;2024-03-02T01:16:02;46.88;;;20.30;;
35312;SDS011;21425;50.454;30.466;2024-03-02T01:18:29;44.33;;;19.40;;
35312;SDS011;21425;50.454;30.466;2024-03-02T01:20:55;57.47;;;20.40;;
35312;SDS011;21425;50.454;30.466;2024-03-02T01:23:22;54.83;;;21.55;;
35312;SDS011;21425;50.454;30.466;2024-03-02T01:25:48;52.90;;;20.52;;
35312;SDS011;21425;50.454;30.466;2024-03-02T01:28:14;51.50;;;20.45;;
35312;SDS011;21425;50.454;30.466;2024-03-02T01:30:40;45.13;;;20.73;;
35312;SDS011;21425;50.454;30.466;2024-03-02T01:33:07;54.97;;;23.45;;
35312;SDS011;21425;50.454;30.466;2024-03-02T01:35:32;59.15;;;22.38;;
35312;SDS011;21425;50.454;30.466;2024-03-02T01:37:59;50.15;;;21.75;;
35312;SDS011;21425;50.454;30.466;2024-03-02T01:40:26;52.40;;;21.23;;
35312;SDS011;21425;50.454;30.466;2024-03-02T01:42:53;49.42;;;20.67;;
35312;SDS011;21425;50.454;30.466;2024-03-02T01:45:19;49.08;;;20.92;;
35312;SDS011;21425;50.454;30.466;2024-03-02T01:47:45;55.05;;;22.33;;
35312;SDS011;21425;50.454;30.466;2024-03-02T01:50:11;53.55;;;22.17;;
35312;SDS011;21425;50.454;30.466;2024-03-02T01:52:38;53.72;;;22.00;;
35312;SDS011;21425;50.454;30.466;2024-03-02T01:55:04;58.45;;;22.48;;
35312;SDS011;21425;50.454;30.466;2024-03-02T01:57:31;59.28;;;22.08;;
35312;SDS011;21425;50.454;30.466;2024-03-02T01:59:57;50.47;;;21.67;;
35312;SDS011;21425;50.454;30.466;2024-03-02T02:02:23;46.58;;;20.85;;
35312;SDS011;21425;50.454;30.466;2024-03-02T02:04:49;49.33;;;21.83;;
35312;SDS011;21425;50.454;30.466;2024-03-02T02:07:15;48.35;;;18.75;;
35312;SDS011;21425;50.454;30.466;2024-03-02T02:09:41;45.95;;;20.02;;
35312;SDS011;21425;50.454;30.466;2024-03-02T02:12:08;54.05;;;20.88;;
35312;SDS011;21425;50.454;30.466;2024-03-02T02:14:34;49.33;;;20.83;;
35312;SDS011;21425;50.454;30.466;2024-03-02T02:17:00;57.00;;;20.98;;
35312;SDS011;21425;50.454;30.466;2024-03-02T02:19:25;55.90;;;21.02;;
35312;SDS011;21425;50.454;30.466;2024-03-02T02:21:51;48.33;;;20.58;;
35312;SDS011;21425;50.454;30.466;2024-03-02T02:24:17;49.30;;;20.13;;
35312;SDS011;21425;50.454;30.466;2024-03-02T02:26:43;54.05;;;21.60;;
35312;SDS011;21425;50.454;30.466;2024-03-02T02:29:09;48.03;;;20.60;;
35312;SDS011;21425;50.454;30.466;2024-03-02T02:31:41;54.75;;;21.45;;
35312;SDS011;21425;50.454;30.466;2024-03-02T02:34:07;43.03;;;20.48;;
35312;SDS011;21425;50.454;30.466;2024-03-02T02:36:34;50.65;;;18.77;;
35312;SDS011;21425;50.454;30.466;2024-03-02T02:39:05;46.30;;;20.60;;
35312;SDS011;21425;50.454;30.466;2024-03-02T02:41:32;58.50;;;21.20;;
35312;SDS011;21425;50.454;30.466;2024-03-02T02:43:58;52.85;;;18.90;;
35312;SDS011;21425;50.454;30.466;2024-03-02T02:46:25;52.78;;;20.42;;
35312;SDS011;21425;50.454;30.466;2024-03-02T02:48:51;48.58;;;20.70;;
35312;SDS011;21425;50.454;30.466;2024-03-02T02:51:18;47.38;;;19.38;;
35312;SDS011;21425;50.454;30.466;2024-03-02T02:53:44;48.20;;;19.40;;
35312;SDS011;21425;50.454;30.466;2024-03-02T02:56:11;45.83;;;19.08;;
35312;SDS011;21425;50.454;30.466;2024-03-02T02:58:37;50.88;;;21.48;;
35312;SDS011;21425;50.454;30.466;2024-03-02T03:01:03;43.65;;;19.88;;
35312;SDS011;21425;50.454;30.466;2024-03-02T03:03:29;55.58;;;23.08;;
35312;SDS011;21425;50.454;30.466;2024-03-02T03:05:55;54.47;;;22.30;;
35312;SDS011;21425;50.454;30.466;2024-03-02T03:08:21;57.95;;;23.80;;
35312;SDS011;21425;50.454;30.466;2024-03-02T03:10:48;48.67;;;22.52;;
35312;SDS011;21425;50.454;30.466;2024-03-02T03:13:14;56.80;;;23.10;;
35312;SDS011;21425;50.454;30.466;2024-03-02T03:15:40;52.40;;;24.67;;
35312;SDS011;21425;50.454;30.466;2024-03-02T03:18:06;61.38;;;25.55;;
35312;SDS011;21425;50.454;30.466;2024-03-02T03:20:32;59.97;;;25.83;;
35312;SDS011;21425;50.454;30.466;2024-03-02T03:22:59;69.00;;;26.55;;
35312;SDS011;21425;50.454;30.466;2024-03-02T03:25:25;75.15;;;29.63;;
35312;SDS011;21425;50.454;30.466;2024-03-02T03:27:51;65.00;;;26.08;;
35312;SDS011;21425;50.454;30.466;2024-03-02T03:30:20;64.55;;;26.23;;
35312;SDS011;21425;50.454;30.466;2024-03-02T03:32:46;72.22;;;27.45;;
35312;SDS011;21425;50.454;30.466;2024-03-02T03:35:13;61.03;;;24.27;;
35312;SDS011;21425;50.454;30.466;2024-03-02T03:37:40;61.53;;;26.30;;
35312;SDS011;21425;50.454;30.466;2024-03-02T03:40:07;57.45;;;24.20;;
35312;SDS011;21425;50.454;30.466;2024-03-02T03:42:38;68.43;;;26.27;;
35312;SDS011;21425;50.454;30.466;2024-03-02T03:45:04;72.60;;;28.73;;
35312;SDS011;21425;50.454;30.466;2024-03-02T03:47:31;67.95;;;30.55;;
35312;SDS011;21425;50.454;30.466;2024-03-02T03:49:57;70.63;;;26.33;;
35312;SDS011;21425;50.454;30.466;2024-03-02T03:52:22;61.13;;;25.48;;
35312;SDS011;21425;50.454;30.466;2024-03-02T03:54:48;60.75;;;25.70;;
35312;SDS011;21425;50.454;30.466;2024-03-02T03:57:14;66.10;;;25.33;;
35312;SDS011;21425;50.454;30.466;2024-03-02T03:59:41;56.80;;;24.50;;
35312;SDS011;21425;50.454;30.466;2024-03-02T04:02:07;72.32;;;29.20;;
35312;SDS011;21425;50.454;30.466;2024-03-02T04:04:34;68.43;;;27.58;;
35312;SDS011;21425;50.454;30.466;2024-03-02T04:07:00;70.07;;;28.08;;
35312;SDS011;21425;50.454;30.466;2024-03-02T04:09:26;84.43;;;33.47;;
35312;SDS011;21425;50.454;30.466;2024-03-02T04:11:52;72.68;;;28.65;;
35312;SDS011;21425;50.454;30.466;2024-03-02T04:14:19;61.90;;;25.80;;
35312;SDS011;21425;50.454;30.466;2024-03-02T04:16:45;63.45;;;25.15;;
35312;SDS011;21425;50.454;30.466;2024-03-02T04:19:11;73.22;;;28.55;;
35312;SDS011;21425;50.454;30.466;2024-03-02T04:21:37;61.47;;;26.80;;
35312;SDS011;21425;50.454;30.466;2024-03-02T04:24:03;65.85;;;29.27;;
35312;SDS011;21425;50.454;30.466;2024-03-02T04:26:29;71.28;;;29.80;;
35312;SDS011;21425;50.454;30.466;2024-03-02T04:28:54;68.20;;;28.67;;
35312;SDS011;21425;50.454;30.466;2024-03-02T04:31:20;74.28;;;28.52;;
35312;SDS011;21425;50.454;30.466;2024-03-02T04:33:47;67.22;;;26.63;;
35312;SDS011;21425;50.454;30.466;2024-03-02T04:36:13;72.45;;;27.98;;
35312;SDS011;21425;50.454;30.466;2024-03-02T04:38:39;64.90;;;26.85;;
35312;SDS011;21425;50.454;30.466;2024-03-02T04:41:06;73.85;;;29.10;;
35312;SDS011;21425;50.454;30.466;2024-03-02T04:43:32;67.88;;;28.33;;
35312;SDS011;21425;50.454;30.466;2024-03-02T04:45:59;70.70;;;27.33;;
35312;SDS011;21425;50.454;30.466;2024-03-02T04:48:25;63.63;;;27.58;;
35312;SDS011;21425;50.454;30.466;2024-03-02T04:50:51;61.03;;;25.73;;
35312;SDS011;21425;50.454;30.466;2024-03-02T04:53:17;64.05;;;26.25;;
35312;SDS011;21425;50.454;30.466;2024-03-02T04:55:43;64.95;;;28.08;;
35312;SDS011;21425;50.454;30.466;2024-03-02T04:58:09;66.63;;;25.38;;
35312;SDS011;21425;50.454;30.466;2024-03-02T05:00:36;65.80;;;25.83;;
35312;SDS011;21425;50.454;30.466;2024-03-02T05:03:02;65.32;;;27.50;;
35312;SDS011;21425;50.454;30.466;2024-03-02T05:05:28;69.40;;;25.33;;
35312;SDS011;21425;50.454;30.466;2024-03-02T05:07:53;75.93;;;28.55;;
35312;SDS011;21425;50.454;30.466;2024-03-02T05:10:20;63.38;;;25.40;;
35312;SDS011;21425;50.454;30.466;2024-03-02T05:12:45;69.15;;;27.88;;
35312;SDS011;21425;50.454;30.466;2024-03-02T05:15:12;69.90;;;27.75;;
35312;SDS011;21425;50.454;30.466;2024-03-02T05:17:41;81.22;;;30.60;;
35312;SDS011;21425;50.454;30.466;2024-03-02T05:20:10;64.35;;;26.05;;
35312;SDS011;21425;50.454;30.466;2024-03-02T05:22:37;67.22;;;27.33;;
35312;SDS011;21425;50.454;30.466;2024-03-02T05:25:03;63.30;;;27.50;;
35312;SDS011;21425;50.454;30.466;2024-03-02T05:27:29;62.97;;;26.08;;
35312;SDS011;21425;50.454;30.466;2024-03-02T05:29:56;62.85;;;27.42;;
35312;SDS011;21425;50.454;30.466;2024-03-02T05:32:23;63.63;;;26.83;;
35312;SDS011;21425;50.454;30.466;2024-03-02T05:34:49;60.92;;;26.08;;
35312;SDS011;21425;50.454;30.466;2024-03-02T05:37:15;63.15;;;25.13;;
35312;SDS011;21425;50.454;30.466;2024-03-02T05:39:41;70.35;;;27.70;;
35312;SDS011;21425;50.454;30.466;2024-03-02T05:42:08;59.15;;;25.02;;
35312;SDS011;21425;50.454;30.466;2024-03-02T05:44:35;62.70;;;24.90;;
35312;SDS011;21425;50.454;30.466;2024-03-02T05:47:03;58.58;;;24.60;;
35312;SDS011;21425;50.454;30.466;2024-03-02T05:49:29;57.35;;;24.38;;
35312;SDS011;21425;50.454;30.466;2024-03-02T05:51:55;59.33;;;24.17;;
35312;SDS011;21425;50.454;30.466;2024-03-02T05:54:21;59.90;;;23.50;;
35312;SDS011;21425;50.454;30.466;2024-03-02T05:56:47;58.95;;;23.38;;
35312;SDS011;21425;50.454;30.466;2024-03-02T05:59:13;55.22;;;21.77;;
35312;SDS011;21425;50.454;30.466;2024-03-02T06:01:44;57.28;;;23.75;;
35312;SDS011;21425;50.454;30.466;2024-03-02T06:04:18;54.00;;;22.63;;
35312;SDS011;21425;50.454;30.466;2024-03-02T06:06:43;50.42;;;22.48;;
35312;SDS011;21425;50.454;30.466;2024-03-02T06:09:09;54.20;;;22.52;;
35312;SDS011;21425;50.454;30.466;2024-03-02T06:11:40;55.63;;;21.50;;
35312;SDS011;21425;50.454;30.466;2024-03-02T06:14:07;54.67;;;22.08;;
35312;SDS011;21425;50.454;30.466;2024-03-02T06:16:33;57.95;;;21.95;;
35312;SDS011;21425;50.454;30.466;2024-03-02T06:18:59;51.75;;;21.35;;
35312;SDS011;21425;50.454;30.466;2024-03-02T06:21:26;62.58;;;22.25;;
35312;SDS011;21425;50.454;30.466;2024-03-02T06:23:52;48.35;;;18.40;;
35312;SDS011;21425;50.454;30.466;2024-03-02T06:26:18;49.92;;;20.27;;
35312;SDS011;21425;50.454;30.466;2024-03-02T06:28:44;50.83;;;19.90;;
35312;SDS011;21425;50.454;30.466;2024-03-02T06:31:11;49.90;;;20.65;;
35312;SDS011;21425;50.454;30.466;2024-03-02T06:33:37;47.78;;;18.98;;
35312;SDS011;21425;50.454;30.466;2024-03-02T06:36:03;53.65;;;20.02;;
35312;SDS011;21425;50.454;30.466;2024-03-02T06:38:29;48.40;;;21.48;;
35312;SDS011;21425;50.454;30.466;2024-03-02T06:40:58;48.17;;;20.73;;
35312;SDS011;21425;50.454;30.466;2024-03-02T06:43:24;46.60;;;20.77;;
35312;SDS011;21425;50.454;30.466;2024-03-02T06:45:50;53.20;;;21.65;;
35312;SDS011;21425;50.454;30.466;2024-03-02T06:48:17;61.10;;;22.42;;
35312;SDS011;21425;50.454;30.466;2024-03-02T06:50:47;50.35;;;21.10;;
35312;SDS011;21425;50.454;30.466;2024-03-02T06:53:13;56.75;;;23.45;;
35312;SDS011;21425;50.454;30.466;2024-03-02T06:55:42;45.20;;;21.75;;
35312;SDS011;21425;50.454;30.466;2024-03-02T06:58:09;46.22;;;20.15;;
35312;SDS011;21425;50.454;30.466;2024-03-02T07:00:35;51.55;;;19.17;;
35312;SDS011;21425;50.454;30.466;2024-03-02T07:03:01;44.05;;;20.08;;
35312;SDS011;21425;50.454;30.466;2024-03-02T07:05:27;46.88;;;19.17;;
35312;SDS011;21425;50.454;30.466;2024-03-02T07:07:53;49.30;;;19.60;;
35312;SDS011;21425;50.454;30.466;2024-03-02T07:10:19;43.10;;;17.95;;
35312;SDS011;21425;50.454;30.466;2024-03-02T07:12:46;38.17;;;18.40;;
35312;SDS011;21425;50.454;30.466;2024-03-02T07:15:12;46.08;;;18.83;;
35312;SDS011;21425;50.454;30.466;2024-03-02T07:17:58;38.20;;;18.42;;
35312;SDS011;21425;50.454;30.466;2024-03-02T07:20:23;39.80;;;18.42;;
35312;SDS011;21425;50.454;30.466;2024-03-02T07:22:49;46.38;;;20.20;;
35312;SDS011;21425;50.454;30.466;2024-03-02T07:25:15;47.10;;;18.73;;
35312;SDS011;21425;50.454;30.466;2024-03-02T07:27:41;49.25;;;19.25;;
35312;SDS011;21425;50.454;30.466;2024-03-02T07:30:09;38.90;;;17.83;;
35312;SDS011;21425;50.454;30.466;2024-03-02T07:32:36;45.08;;;18.08;;
35312;SDS011;21425;50.454;30.466;2024-03-02T07:35:02;47.00;;;17.85;;
35312;SDS011;21425;50.454;30.466;2024-03-02T07:37:28;49.47;;;19.83;;
35312;SDS011;21425;50.454;30.466;2024-03-02T07:39:55;41.35;;;18.27;;
35312;SDS011;21425;50.454;30.466;2024-03-02T07:42:21;41.90;;;19.13;;
35312;SDS011;21425;50.454;30.466;2024-03-02T07:44:47;46.53;;;19.10;;
35312;SDS011;21425;50.454;30.466;2024-03-02T07:47:13;45.10;;;19.85;;
35312;SDS011;21425;50.454;30.466;2024-03-02T07:49:39;38.88;;;17.15;;
35312;SDS011;21425;50.454;30.466;2024-03-02T07:52:05;43.42;;;18.50;;
35312;SDS011;21425;50.454;30.466;2024-03-02T07:54:32;43.20;;;19.70;;
35312;SDS011;21425;50.454;30.466;2024-03-02T07:56:58;48.38;;;19.60;;
35312;SDS011;21425;50.454;30.466;2024-03-02T07:59:24;44.80;;;20.17;;
35312;SDS011;21425;50.454;30.466;2024-03-02T08:01:50;45.63;;;20.40;;
35312;SDS011;21425;50.454;30.466;2024-03-02T08:04:16;39.15;;;19.25;;
35312;SDS011;21425;50.454;30.466;2024-03-02T08:06:42;48.95;;;19.25;;
35312;SDS011;21425;50.454;30.466;2024-03-02T08:09:08;48.83;;;22.10;;
35312;SDS011;21425;50.454;30.466;2024-03-02T08:11:35;40.88;;;18.73;;
35312;SDS011;21425;50.454;30.466;2024-03-02T08:14:02;46.83;;;18.83;;
35312;SDS011;21425;50.454;30.466;2024-03-02T08:16:28;40.78;;;18.33;;
35312;SDS011;21425;50.454;30.466;2024-03-02T08:18:55;44.05;;;19.20;;
35312;SDS011;21425;50.454;30.466;2024-03-02T08:21:23;48.15;;;19.80;;
35312;SDS011;21425;50.454;30.466;2024-03-02T08:23:49;47.72;;;19.75;;
35312;SDS011;21425;50.454;30.466;2024-03-02T08:26:15;38.85;;;16.95;;
35312;SDS011;21425;50.454;30.466;2024-03-02T08:28:41;38.00;;;17.10;;
35312;SDS011;21425;50.454;30.466;2024-03-02T08:31:07;38.80;;;17.13;;
35312;SDS011;21425;50.454;30.466;2024-03-02T08:33:34;38.35;;;17.52;;
35312;SDS011;21425;50.454;30.466;2024-03-02T08:36:00;38.15;;;16.90;;
35312;SDS011;21425;50.454;30.466;2024-03-02T08:38:26;37.30;;;15.25;;
35312;SDS011;21425;50.454;30.466;2024-03-02T08:40:52;32.28;;;15.30;;
35312;SDS011;21425;50.454;30.466;2024-03-02T08:43:18;33.92;;;16.10;;
35312;SDS011;21425;50.454;30.466;2024-03-02T08:45:45;29.00;;;13.52;;
35312;SDS011;21425;50.454;30.466;2024-03-02T08:48:12;30.73;;;13.90;;
35312;SDS011;21425;50.454;30.466;2024-03-02T08:50:38;28.80;;;13.27;;
35312;SDS011;21425;50.454;30.466;2024-03-02T08:53:04;27.38;;;12.63;;
35312;SDS011;21425;50.454;30.466;2024-03-02T08:55:30;29.25;;;12.45;;
35312;SDS011;21425;50.454;30.466;2024-03-02T08:57:56;29.75;;;13.13;;
35312;SDS011;21425;50.454;30.466;2024-03-02T09:00:22;25.88;;;12.80;;
35312;SDS011;21425;50.454;30.466;2024-03-02T09:02:48;28.00;;;12.43;;
35312;SDS011;21425;50.454;30.466;2024-03-02T09:05:15;31.85;;;14.15;;
35312;SDS011;21425;50.454;30.466;2024-03-02T09:07:41;24.75;;;11.90;;
35312;SDS011;21425;50.454;30.466;2024-03-02T09:10:07;24.77;;;11.85;;
35312;SDS011;21425;50.454;30.466;2024-03-02T09:12:33;28.33;;;12.70;;
35312;SDS011;21425;50.454;30.466;2024-03-02T09:15:00;22.10;;;12.43;;
35312;SDS011;21425;50.454;30.466;2024-03-02T09:17:26;26.73;;;12.70;;
35312;SDS011;21425;50.454;30.466;2024-03-02T09:19:52;30.92;;;12.85;;
35312;SDS011;21425;50.454;30.466;2024-03-02T09:22:19;27.20;;;12.82;;
35312;SDS011;21425;50.454;30.466;2024-03-02T09:24:45;29.50;;;12.68;;
35312;SDS011;21425;50.454;30.466;2024-03-02T09:27:11;27.48;;;13.07;;
35312;SDS011;21425;50.454;30.466;2024-03-02T09:29:37;31.30;;;13.77;;
35312;SDS011;21425;50.454;30.466;2024-03-02T09:32:03;31.25;;;14.00;;
35312;SDS011;21425;50.454;30.466;2024-03-02T09:34:33;23.70;;;11.98;;
35312;SDS011;21425;50.454;30.466;2024-03-02T09:36:59;28.88;;;12.05;;
35312;SDS011;21425;50.454;30.466;2024-03-02T09:39:25;31.85;;;13.68;;
35312;SDS011;21425;50.454;30.466;2024-03-02T09:41:51;22.88;;;12.80;;
35312;SDS011;21425;50.454;30.466;2024-03-02T09:44:17;35.95;;;14.43;;
35312;SDS011;21425;50.454;30.466;2024-03-02T09:46:43;30.85;;;12.43;;
35312;SDS011;21425;50.454;30.466;2024-03-02T09:49:10;27.75;;;13.45;;
35312;SDS011;21425;50.454;30.466;2024-03-02T09:51:37;28.83;;;13.82;;
35312;SDS011;21425;50.454;30.466;2024-03-02T09:54:02;29.30;;;13.30;;
35312;SDS011;21425;50.454;30.466;2024-03-02T09:56:29;32.28;;;13.55;;
35312;SDS011;21425;50.454;30.466;2024-03-02T09:58:55;27.33;;;12.82;;
35312;SDS011;21425;50.454;30.466;2024-03-02T10:01:21;26.77;;;12.98;;
35312;SDS011;21425;50.454;30.466;2024-03-02T10:03:47;21.27;;;11.55;;
35312;SDS011;21425;50.454;30.466;2024-03-02T10:06:33;28.40;;;12.75;;
35312;SDS011;21425;50.454;30.466;2024-03-02T10:08:59;25.60;;;12.20;;
35312;SDS011;21425;50.454;30.466;2024-03-02T10:11:28;27.20;;;13.30;;
35312;SDS011;21425;50.454;30.466;2024-03-02T10:16:35;25.42;;;12.70;;
35312;SDS011;21425;50.454;30.466;2024-03-02T10:21:47;28.58;;;13.65;;
35312;SDS011;21425;50.454;30.466;2024-03-02T10:24:14;29.05;;;14.50;;
35312;SDS011;21425;50.454;30.466;2024-03-02T10:26:40;35.22;;;15.73;;
35312;SDS011;21425;50.454;30.466;2024-03-02T10:29:10;29.40;;;13.80;;
35312;SDS011;21425;50.454;30.466;2024-03-02T10:31:37;30.20;;;13.88;;
35312;SDS011;21425;50.454;30.466;2024-03-02T10:34:03;29.38;;;14.32;;
35312;SDS011;21425;50.454;30.466;2024-03-02T10:36:29;33.30;;;15.75;;
35312;SDS011;21425;50.454;30.466;2024-03-02T10:38:58;29.58;;;14.40;;
35312;SDS011;21425;50.454;30.466;2024-03-02T10:41:28;27.73;;;15.05;;
35312;SDS011;21425;50.454;30.466;2024-03-02T10:43:57;31.60;;;14.52;;
35312;SDS011;21425;50.454;30.466;2024-03-02T10:46:31;30.23;;;13.95;;
35312;SDS011;21425;50.454;30.466;2024-03-02T10:48:57;28.73;;;13.35;;
35312;SDS011;21425;50.454;30.466;2024-03-02T10:51:27;27.38;;;13.80;;
35312;SDS011;21425;50.454;30.466;2024-03-02T10:53:56;27.83;;;12.18;;
35312;SDS011;21425;50.454;30.466;2024-03-02T10:56:27;27.33;;;13.10;;
35312;SDS011;21425;50.454;30.466;2024-03-02T10:59:03;23.33;;;11.93;;
35312;SDS011;21425;50.454;30.466;2024-03-02T11:01:32;22.25;;;10.93;;
35312;SDS011;21425;50.454;30.466;2024-03-02T11:03:58;28.27;;;11.98;;
35312;SDS011;21425;50.454;30.466;2024-03-02T11:06:25;33.63;;;12.70;;
35312;SDS011;21425;50.454;30.466;2024-03-02T11:08:53;28.92;;;12.77;;
35312;SDS011;21425;50.454;30.466;2024-03-02T11:11:25;21.08;;;10.02;;
35312;SDS011;21425;50.454;30.466;2024-03-02T11:13:54;21.40;;;10.48;;
35312;SDS011;21425;50.454;30.466;2024-03-02T11:16:32;20.95;;;9.98;;
35312;SDS011;21425;50.454;30.466;2024-03-02T11:19:02;20.45;;;9.48;;
35312;SDS011;21425;50.454;30.466;2024-03-02T11:21:34;22.33;;;10.77;;
35312;SDS011;21425;50.454;30.466;2024-03-02T11:24:08;22.33;;;9.75;;
35312;SDS011;21425;50.454;30.466;2024-03-02T11:26:47;19.33;;;9.38;;
35312;SDS011;21425;50.454;30.466;2024-03-02T11:34:33;22.35;;;9.48;;
35312;SDS011;21425;50.454;30.466;2024-03-02T11:37:02;22.10;;;9.93;;
35312;SDS011;21425;50.454;30.466;2024-03-02T11:39:29;23.50;;;9.73;;
35312;SDS011;21425;50.454;30.466;2024-03-02T11:41:58;26.63;;;9.93;;
35312;SDS011;21425;50.454;30.466;2024-03-02T11:44:25;19.60;;;8.95;;
35312;SDS011;21425;50.454;30.466;2024-03-02T11:47:01;16.73;;;8.45;;
35312;SDS011;21425;50.454;30.466;2024-03-02T11:49:43;20.33;;;9.40;;
35312;SDS011;21425;50.454;30.466;2024-03-02T11:52:11;19.80;;;8.50;;
35312;SDS011;21425;50.454;30.466;2024-03-02T11:54:42;20.35;;;8.18;;
35312;SDS011;21425;50.454;30.466;2024-03-02T11:57:11;18.77;;;9.15;;
35312;SDS011;21425;50.454;30.466;2024-03-02T11:59:37;18.95;;;8.52;;
35312;SDS011;21425;50.454;30.466;2024-03-02T12:02:03;28.90;;;10.88;;
35312;SDS011;21425;50.454;30.466;2024-03-02T12:04:30;20.98;;;9.07;;
35312;SDS011;21425;50.454;30.466;2024-03-02T12:06:57;20.08;;;8.85;;
35312;SDS011;21425;50.454;30.466;2024-03-02T12:09:25;21.52;;;9.07;;
35312;SDS011;21425;50.454;30.466;2024-03-02T12:12:04;22.83;;;8.93;;
35312;SDS011;21425;50.454;30.466;2024-03-02T12:14:31;22.92;;;9.15;;
35312;SDS011;21425;50.454;30.466;2024-03-02T12:16:57;17.13;;;8.27;;
35312;SDS011;21425;50.454;30.466;2024-03-02T12:19:24;22.60;;;9.25;;
35312;SDS011;21425;50.454;30.466;2024-03-02T12:21:50;23.33;;;9.00;;
35312;SDS011;21425;50.454;30.466;2024-03-02T12:24:16;19.45;;;9.20;;
35312;SDS011;21425;50.454;30.466;2024-03-02T12:26:43;17.92;;;9.27;;
35312;SDS011;21425;50.454;30.466;2024-03-02T12:29:10;27.63;;;8.68;;
35312;SDS011;21425;50.454;30.466;2024-03-02T12:31:36;21.40;;;9.60;;
35312;SDS011;21425;50.454;30.466;2024-03-02T12:34:03;18.90;;;8.70;;
35312;SDS011;21425;50.454;30.466;2024-03-02T12:36:29;30.50;;;10.43;;
35312;SDS011;21425;50.454;30.466;2024-03-02T12:38:55;17.95;;;9.43;;
35312;SDS011;21425;50.454;30.466;2024-03-02T12:41:21;24.98;;;9.07;;
35312;SDS011;21425;50.454;30.466;2024-03-02T12:43:47;18.85;;;9.13;;
35312;SDS011;21425;50.454;30.466;2024-03-02T12:46:13;24.27;;;9.88;;
35312;SDS011;21425;50.454;30.466;2024-03-02T12:48:40;24.33;;;9.85;;
35312;SDS011;21425;50.454;30.466;2024-03-02T12:51:07;21.38;;;10.10;;
35312;SDS011;21425;50.454;30.466;2024-03-02T12:53:33;22.77;;;9.55;;
35312;SDS011;21425;50.454;30.466;2024-03-02T12:55:59;20.67;;;9.63;;
35312;SDS011;21425;50.454;30.466;2024-03-02T12:58:25;23.20;;;11.32;;
35312;SDS011;21425;50.454;30.466;2024-03-02T13:01:05;21.98;;;10.50;;
35312;SDS011;21425;50.454;30.466;2024-03-02T13:03:35;24.67;;;9.75;;
35312;SDS011;21425;50.454;30.466;2024-03-02T13:06:04;24.17;;;10.38;;
35312;SDS011;21425;50.454;30.466;2024-03-02T13:08:31;19.48;;;9.88;;
35312;SDS011;21425;50.454;30.466;2024-03-02T13:10:57;23.58;;;10.52;;
35312;SDS011;21425;50.454;30.466;2024-03-02T13:13:23;23.27;;;10.30;;
35312;SDS011;21425;50.454;30.466;2024-03-02T13:15:49;23.83;;;10.48;;
35312;SDS011;21425;50.454;30.466;2024-03-02T13:18:17;18.85;;;9.13;;
35312;SDS011;21425;50.454;30.466;2024-03-02T13:20:44;21.25;;;9.75;;
35312;SDS011;21425;50.454;30.466;2024-03-02T13:23:10;18.05;;;9.93;;
35312;SDS011;21425;50.454;30.466;2024-03-02T13:25:35;22.30;;;9.20;;
35312;SDS011;21425;50.454;30.466;2024-03-02T13:28:01;19.65;;;9.32;;
35312;SDS011;21425;50.454;30.466;2024-03-02T13:30:28;21.55;;;10.50;;
35312;SDS011;21425;50.454;30.466;2024-03-02T13:32:54;23.45;;;10.50;;
35312;SDS011;21425;50.454;30.466;2024-03-02T13:35:20;21.70;;;10.10;;
35312;SDS011;21425;50.454;30.466;2024-03-02T13:37:46;19.10;;;9.23;;
35312;SDS011;21425;50.454;30.466;2024-03-02T13:40:12;23.17;;;9.90;;
35312;SDS011;21425;50.454;30.466;2024-03-02T13:42:42;22.85;;;10.00;;
35312;SDS011;21425;50.454;30.466;2024-03-02T13:45:08;19.50;;;9.40;;
35312;SDS011;21425;50.454;30.466;2024-03-02T13:47:34;21.15;;;9.25;;
35312;SDS011;21425;50.454;30.466;2024-03-02T13:50:00;23.92;;;10.43;;
35312;SDS011;21425;50.454;30.466;2024-03-02T13:52:27;21.92;;;10.10;;
35312;SDS011;21425;50.454;30.466;2024-03-02T13:54:53;22.92;;;9.68;;
35312;SDS011;21425;50.454;30.466;2024-03-02T13:57:19;22.48;;;10.13;;
35312;SDS011;21425;50.454;30.466;2024-03-02T13:59:45;20.50;;;10.23;;
35312;SDS011;21425;50.454;30.466;2024-03-02T14:02:11;18.27;;;9.13;;
35312;SDS011;21425;50.454;30.466;2024-03-02T14:04:37;27.58;;;9.82;;
35312;SDS011;21425;50.454;30.466;2024-03-02T14:07:04;21.38;;;8.85;;
35312;SDS011;21425;50.454;30.466;2024-03-02T14:09:33;20.70;;;9.52;;
35312;SDS011;21425;50.454;30.466;2024-03-02T14:11:58;19.33;;;9.27;;
35312;SDS011;21425;50.454;30.466;2024-03-02T14:14:27;19.92;;;9.25;;
35312;SDS011;21425;50.454;30.466;2024-03-02T14:16:54;16.38;;;9.20;;
35312;SDS011;21425;50.454;30.466;2024-03-02T14:19:21;20.60;;;9.45;;
35312;SDS011;21425;50.454;30.466;2024-03-02T14:21:47;16.80;;;8.98;;
35312;SDS011;21425;50.454;30.466;2024-03-02T14:24:13;18.45;;;9.80;;